createdAt,value
2018-07-26T00:02:27.852Z,99.20
2018-07-26T00:04:56.098Z,99.00
2018-07-26T00:07:24.421Z,99.10
2018-07-26T00:09:52.603Z,99.00
2018-07-26T00:12:20.792Z,99.00
2018-07-26T00:17:16.915Z,99.10
2018-07-26T00:19:45.088Z,99.10
2018-07-26T00:22:13.859Z,99.10
2018-07-26T00:24:42.073Z,99.30
2018-07-26T00:27:10.237Z,99.20
2018-07-26T00:29:38.419Z,99.80
2018-07-26T00:37:02.524Z,99.60
2018-07-26T00:39:30.683Z,99.70
2018-07-26T00:41:58.863Z,99.70
2018-07-26T00:44:27.069Z,99.70
2018-07-26T00:46:55.254Z,99.70
2018-07-26T00:49:23.558Z,99.80
2018-07-26T00:51:51.767Z,99.90
2018-07-26T00:54:19.944Z,99.90
2018-07-26T00:59:16.080Z,99.50
2018-07-26T01:01:44.335Z,99.90
2018-07-26T01:04:12.496Z,99.80
2018-07-26T01:06:40.647Z,99.90
2018-07-26T01:09:10.321Z,99.90
2018-07-26T01:14:07.081Z,99.90
2018-07-26T01:19:03.748Z,99.90
2018-07-26T01:21:31.926Z,99.90
2018-07-26T01:24:00.128Z,99.90
2018-07-26T01:26:28.296Z,99.90
2018-07-26T01:28:56.479Z,99.90
2018-07-26T01:31:24.679Z,99.90
2018-07-26T01:33:53.198Z,99.90
2018-07-26T01:36:21.376Z,99.90
2018-07-26T01:38:49.592Z,99.90
2018-07-26T01:41:17.787Z,99.90
2018-07-26T01:43:57.567Z,99.90
2018-07-26T01:46:26.642Z,99.90
2018-07-26T01:53:50.756Z,99.90
2018-07-26T02:03:42.812Z,99.90
2018-07-26T02:06:11.114Z,99.90
2018-07-26T02:08:39.301Z,99.90
2018-07-26T02:11:07.509Z,99.90
2018-07-26T02:13:35.668Z,99.90
2018-07-26T02:16:03.864Z,99.90
2018-07-26T02:18:32.057Z,99.90
2018-07-26T02:21:00.224Z,99.90
2018-07-26T02:23:28.433Z,99.90
2018-07-26T02:25:56.585Z,99.90
2018-07-26T02:28:24.766Z,99.90
2018-07-26T02:33:21.489Z,99.90
2018-07-26T02:35:49.665Z,99.90
2018-07-26T02:38:17.842Z,99.90
2018-07-26T02:40:46.029Z,99.90
2018-07-26T02:43:14.209Z,99.90
2018-07-26T02:48:10.347Z,99.90
2018-07-26T02:50:38.519Z,99.90
2018-07-26T02:53:06.752Z,99.90
2018-07-26T02:55:34.924Z,99.90
2018-07-26T02:58:03.120Z,99.90
2018-07-26T03:00:31.296Z,99.90
2018-07-26T03:02:59.493Z,99.90
2018-07-26T03:07:56.052Z,99.90
2018-07-26T03:12:52.199Z,99.90
2018-07-26T03:17:48.344Z,99.90
2018-07-26T03:22:44.464Z,99.90
2018-07-26T03:25:12.664Z,99.90
2018-07-26T03:30:08.899Z,99.90
2018-07-26T03:35:05.021Z,99.90
2018-07-26T03:37:33.194Z,99.90
2018-07-26T03:40:01.352Z,99.90
2018-07-26T03:42:29.675Z,99.90
2018-07-26T03:44:57.900Z,99.90
2018-07-26T03:47:26.081Z,99.90
2018-07-26T03:49:54.272Z,99.90
2018-07-26T03:52:22.432Z,99.90
2018-07-26T03:54:50.770Z,99.90
2018-07-26T03:57:18.936Z,99.90
2018-07-26T03:59:47.110Z,99.90
2018-07-26T04:02:15.310Z,99.90
2018-07-26T04:04:43.513Z,99.90
2018-07-26T04:07:18.225Z,99.90
2018-07-26T04:12:14.426Z,99.90
2018-07-26T04:14:42.622Z,99.90
2018-07-26T04:17:10.813Z,99.90
2018-07-26T04:19:39.005Z,99.90
2018-07-26T04:22:07.196Z,99.90
2018-07-26T04:27:03.334Z,99.90
2018-07-26T04:29:31.508Z,99.90
2018-07-26T04:34:27.627Z,99.90
2018-07-26T04:36:55.823Z,99.90
2018-07-26T04:41:52.022Z,99.90
2018-07-26T04:44:21.106Z,99.90
2018-07-26T04:46:49.384Z,99.90
2018-07-26T04:49:17.552Z,99.90
2018-07-26T04:51:45.728Z,99.90
2018-07-26T04:54:13.894Z,99.90
2018-07-26T04:56:42.171Z,99.90
2018-07-26T04:59:10.451Z,99.90
2018-07-26T05:01:38.627Z,99.90
2018-07-26T05:04:06.812Z,99.90
2018-07-26T05:06:35.012Z,99.90
2018-07-26T05:09:03.855Z,99.90
2018-07-26T05:11:32.056Z,99.90
2018-07-26T05:14:00.227Z,99.90
2018-07-26T05:16:28.413Z,99.90
2018-07-26T05:18:56.609Z,99.90
2018-07-26T05:21:24.795Z,99.90
2018-07-26T05:26:20.952Z,99.90
2018-07-26T05:28:49.242Z,99.90
2018-07-26T05:31:17.464Z,99.90
2018-07-26T05:33:45.651Z,99.90
2018-07-26T05:38:41.793Z,99.90
2018-07-26T05:43:38.178Z,99.90
2018-07-26T05:46:06.413Z,99.90
2018-07-26T05:51:02.603Z,99.90
2018-07-26T05:53:30.780Z,99.90
2018-07-26T05:55:58.967Z,99.90
2018-07-26T05:58:27.164Z,99.90
2018-07-26T06:00:55.344Z,99.90
2018-07-26T06:03:23.515Z,99.90
2018-07-26T06:05:51.703Z,99.90
2018-07-26T06:10:48.772Z,99.90
2018-07-26T06:13:16.951Z,99.90
2018-07-26T06:15:45.127Z,99.90
2018-07-26T06:18:13.316Z,99.90
2018-07-26T06:20:41.653Z,99.90
2018-07-26T06:23:09.788Z,99.90
2018-07-26T06:25:37.976Z,99.90
2018-07-26T06:28:06.195Z,99.90
2018-07-26T06:30:34.356Z,99.90
2018-07-26T06:35:30.497Z,99.90
2018-07-26T06:40:26.679Z,99.90
2018-07-26T06:42:54.858Z,99.90
2018-07-26T06:45:23.087Z,99.90
2018-07-26T06:50:19.208Z,99.90
2018-07-26T06:52:47.494Z,99.90
2018-07-26T06:55:15.670Z,99.90
2018-07-26T06:57:43.850Z,99.90
2018-07-26T07:02:40.512Z,99.90
2018-07-26T07:07:36.813Z,99.90
2018-07-26T07:10:05.412Z,99.90
2018-07-26T07:12:33.560Z,99.90
2018-07-26T07:15:01.760Z,99.90
2018-07-26T07:17:29.922Z,99.90
2018-07-26T07:19:58.108Z,99.90
2018-07-26T07:22:26.263Z,99.90
2018-07-26T07:24:54.439Z,99.90
2018-07-26T07:27:22.623Z,99.90
2018-07-26T07:29:50.786Z,99.90
2018-07-26T07:32:19.856Z,99.90
2018-07-26T07:34:48.043Z,99.90
2018-07-26T07:37:16.222Z,99.90
2018-07-26T07:39:44.400Z,99.90
2018-07-26T07:42:12.583Z,99.90
2018-07-26T07:44:40.767Z,99.90
2018-07-26T07:47:08.940Z,99.90
2018-07-26T07:49:37.107Z,99.70
2018-07-26T07:52:05.520Z,99.90
2018-07-26T07:57:01.652Z,99.90
2018-07-26T08:01:57.849Z,99.90
2018-07-26T08:04:26.014Z,99.90
2018-07-26T08:06:54.237Z,99.90
2018-07-26T08:09:22.415Z,99.90
2018-07-26T08:14:18.549Z,99.90
2018-07-26T08:16:46.724Z,99.90
2018-07-26T08:19:14.903Z,99.90
2018-07-26T08:24:11.015Z,99.90
2018-07-26T08:26:39.200Z,99.90
2018-07-26T08:29:07.388Z,99.90
2018-07-26T08:31:35.606Z,99.90
2018-07-26T08:34:03.784Z,99.90
2018-07-26T08:36:31.961Z,99.90
2018-07-26T08:39:00.151Z,99.90
2018-07-26T08:41:28.328Z,99.90
2018-07-26T08:43:56.643Z,99.90
2018-07-26T08:48:52.797Z,99.90
2018-07-26T08:56:16.896Z,99.90
2018-07-26T09:01:13.025Z,99.20
2018-07-26T09:03:41.207Z,98.70
2018-07-26T09:08:37.483Z,99.00
2018-07-26T09:11:05.680Z,98.80
2018-07-26T09:13:33.895Z,98.50
2018-07-26T09:16:02.043Z,98.40
2018-07-26T09:18:30.228Z,98.40
2018-07-26T09:20:58.553Z,98.00
2018-07-26T09:23:26.914Z,98.30
2018-07-26T09:25:55.342Z,98.20
2018-07-26T09:28:23.532Z,98.10
2018-07-26T09:30:51.776Z,97.80
2018-07-26T09:33:20.861Z,97.30
2018-07-26T09:35:49.079Z,97.30
2018-07-26T09:38:17.308Z,97.10
2018-07-26T09:40:45.495Z,97.20
2018-07-26T09:43:13.674Z,97.00
2018-07-26T09:45:41.855Z,97.00
2018-07-26T09:48:10.056Z,96.70
2018-07-26T09:50:38.227Z,97.20
2018-07-26T09:53:06.423Z,96.70
2018-07-26T09:58:02.616Z,97.00
2018-07-26T10:00:36.039Z,96.40
2018-07-26T10:03:04.217Z,96.50
2018-07-26T10:05:32.384Z,95.70
2018-07-26T10:08:00.573Z,96.00
2018-07-26T10:10:28.751Z,95.50
2018-07-26T10:15:24.972Z,95.20
2018-07-26T10:17:53.144Z,95.00
2018-07-26T10:20:21.314Z,95.60
2018-07-26T10:22:49.508Z,95.10
2018-07-26T10:27:45.728Z,95.10
2018-07-26T10:30:13.868Z,95.20
2018-07-26T10:32:42.079Z,94.70
2018-07-26T10:35:10.276Z,94.40
2018-07-26T10:40:06.419Z,93.70
2018-07-26T10:45:02.524Z,93.00
2018-07-26T10:47:30.704Z,92.50
2018-07-26T10:52:33.607Z,93.60
2018-07-26T10:55:01.813Z,92.50
2018-07-26T11:02:25.911Z,92.40
2018-07-26T11:04:54.089Z,92.50
2018-07-26T11:09:50.385Z,91.60
2018-07-26T11:12:18.572Z,90.00
2018-07-26T11:14:46.748Z,90.30
2018-07-26T11:17:14.919Z,89.00
2018-07-26T11:19:43.109Z,90.60
2018-07-26T11:22:11.291Z,90.00
2018-07-26T11:24:43.705Z,86.90
2018-07-26T11:27:11.892Z,86.80
2018-07-26T11:29:40.123Z,86.50
2018-07-26T11:32:08.329Z,85.80
2018-07-26T11:34:36.875Z,85.40
2018-07-26T11:39:33.007Z,86.90
2018-07-26T11:42:01.233Z,86.00
2018-07-26T11:44:29.434Z,86.30
2018-07-26T11:46:57.668Z,85.50
2018-07-26T11:49:25.840Z,87.10
2018-07-26T11:51:54.036Z,85.60
2018-07-26T11:54:22.203Z,82.10
2018-07-26T11:56:50.405Z,82.40
2018-07-26T11:59:18.607Z,83.80
2018-07-26T12:04:14.715Z,83.40
2018-07-26T12:06:42.902Z,79.80
2018-07-26T12:09:11.212Z,80.70
2018-07-26T12:14:08.264Z,79.80
2018-07-26T12:16:36.426Z,81.00
2018-07-26T12:19:04.601Z,80.50
2018-07-26T12:21:32.771Z,78.40
2018-07-26T12:24:00.980Z,80.00
2018-07-26T12:26:29.138Z,78.60
2018-07-26T12:31:25.547Z,77.70
2018-07-26T12:33:53.733Z,76.60
2018-07-26T12:36:21.924Z,75.40
2018-07-26T12:41:18.107Z,75.00
2018-07-26T12:43:46.326Z,73.20
2018-07-26T12:46:14.516Z,73.30
2018-07-26T12:48:42.696Z,74.80
2018-07-26T12:56:06.830Z,72.40
2018-07-26T12:58:35.043Z,73.20
2018-07-26T13:01:03.249Z,70.80
2018-07-26T13:05:59.436Z,70.30
2018-07-26T13:08:27.623Z,70.70
2018-07-26T13:10:55.826Z,69.90
2018-07-26T13:13:24.013Z,68.30
2018-07-26T13:15:52.184Z,68.80
2018-07-26T13:20:49.097Z,70.90
2018-07-26T13:23:17.287Z,68.10
2018-07-26T13:25:45.487Z,68.00
2018-07-26T13:28:13.685Z,67.30
2018-07-26T13:30:41.868Z,66.80
2018-07-26T13:33:10.080Z,69.20
2018-07-26T13:35:38.347Z,67.80
2018-07-26T13:38:06.519Z,66.10
2018-07-26T13:40:34.713Z,65.50
2018-07-26T13:43:02.900Z,66.10
2018-07-26T13:45:31.080Z,66.10
2018-07-26T13:47:59.259Z,65.10
2018-07-26T13:52:55.384Z,66.20
2018-07-26T13:55:23.565Z,63.20
2018-07-26T13:57:51.972Z,64.20
2018-07-26T14:00:20.135Z,63.60
2018-07-26T14:02:48.348Z,63.10
2018-07-26T14:05:16.552Z,63.00
2018-07-26T14:07:44.740Z,64.40
2018-07-26T14:10:12.936Z,62.00
2018-07-26T14:12:41.108Z,61.90
2018-07-26T14:15:10.512Z,62.20
2018-07-26T14:17:38.881Z,62.70
2018-07-26T14:22:35.699Z,61.80
2018-07-26T14:25:04.127Z,61.10
2018-07-26T14:27:32.310Z,62.10
2018-07-26T14:30:00.503Z,62.60
2018-07-26T14:32:28.671Z,61.60
2018-07-26T14:34:56.863Z,60.10
2018-07-26T14:37:25.024Z,61.10
2018-07-26T14:39:53.227Z,60.60
2018-07-26T14:42:22.327Z,59.80
2018-07-26T14:44:50.529Z,60.20
2018-07-26T14:49:46.640Z,58.70
2018-07-26T14:52:14.827Z,58.80
2018-07-26T14:54:43.008Z,57.80
2018-07-26T14:59:39.148Z,56.60
2018-07-26T15:02:07.551Z,58.10
2018-07-26T15:07:03.735Z,58.20
2018-07-26T15:09:31.912Z,57.50
2018-07-26T15:12:00.105Z,58.00
2018-07-26T15:14:28.295Z,58.50
2018-07-26T15:19:24.451Z,58.50
2018-07-26T15:21:52.665Z,58.90
2018-07-26T15:24:20.851Z,58.20
2018-07-26T15:26:49.056Z,57.20
2018-07-26T15:29:18.064Z,57.90
2018-07-26T15:31:46.276Z,57.70
2018-07-26T15:34:14.452Z,56.60
2018-07-26T15:36:42.632Z,56.20
2018-07-26T15:39:11.500Z,56.90
2018-07-26T15:41:42.916Z,55.50
2018-07-26T15:46:39.776Z,56.30
2018-07-26T15:51:36.165Z,55.50
2018-07-26T15:54:04.349Z,55.90
2018-07-26T15:56:32.520Z,56.40
2018-07-26T15:59:00.740Z,56.20
2018-07-26T16:06:25.163Z,56.20
2018-07-26T16:11:21.564Z,56.40
2018-07-26T16:13:49.736Z,56.70
2018-07-26T16:16:17.912Z,55.80
2018-07-26T16:18:46.093Z,55.70
2018-07-26T16:21:14.276Z,56.00
2018-07-26T16:23:42.489Z,55.60
2018-07-26T16:26:10.672Z,54.70
2018-07-26T16:28:38.887Z,55.00
2018-07-26T16:31:07.052Z,55.30
2018-07-26T16:33:35.240Z,55.40
2018-07-26T16:36:03.429Z,54.50
2018-07-26T16:38:31.672Z,53.80
2018-07-26T16:40:59.899Z,54.50
2018-07-26T16:45:56.069Z,55.90
2018-07-26T16:48:24.260Z,55.50
2018-07-26T16:50:52.462Z,55.70
2018-07-26T16:53:21.278Z,55.30
2018-07-26T16:55:49.467Z,53.80
2018-07-26T16:58:17.675Z,54.50
2018-07-26T17:00:45.831Z,55.50
2018-07-26T17:03:14.031Z,54.90
2018-07-26T17:05:42.205Z,57.10
2018-07-26T17:08:10.384Z,58.10
2018-07-26T17:10:38.572Z,58.70
2018-07-26T17:13:06.766Z,59.20
2018-07-26T17:18:03.034Z,61.20
2018-07-26T17:20:31.315Z,60.90
2018-07-26T17:22:59.513Z,61.70
2018-07-26T17:25:27.975Z,61.90
2018-07-26T17:27:56.745Z,62.90
2018-07-26T17:30:25.151Z,63.20
2018-07-26T17:32:53.335Z,64.00
2018-07-26T17:35:22.083Z,64.30
2018-07-26T17:37:50.617Z,64.80
2018-07-26T17:40:18.807Z,65.10
2018-07-26T17:45:14.968Z,65.20
2018-07-26T17:47:43.111Z,65.90
2018-07-26T17:50:11.852Z,66.00
2018-07-26T17:52:40.622Z,66.10
2018-07-26T17:55:09.187Z,66.50
2018-07-26T18:00:08.216Z,66.90
2018-07-26T18:02:36.427Z,68.20
2018-07-26T18:05:05.460Z,69.40
2018-07-26T18:10:01.619Z,67.40
2018-07-26T18:12:29.915Z,63.90
2018-07-26T18:14:58.113Z,69.80
2018-07-26T18:17:26.567Z,74.30
2018-07-26T18:19:54.757Z,75.50
2018-07-26T18:22:22.916Z,76.50
2018-07-26T18:24:51.176Z,77.20
2018-07-26T18:27:19.395Z,78.90
2018-07-26T18:29:47.846Z,79.60
2018-07-26T18:32:16.048Z,78.10
2018-07-26T18:34:44.219Z,79.40
2018-07-26T18:37:12.409Z,81.50
2018-07-26T18:39:40.608Z,82.90
2018-07-26T18:42:08.795Z,84.60
2018-07-26T18:44:36.964Z,86.70
2018-07-26T18:47:05.191Z,88.20
2018-07-26T18:49:33.386Z,89.50
2018-07-26T18:52:01.549Z,90.40
2018-07-26T18:54:29.870Z,90.90
2018-07-26T18:57:04.396Z,91.00
2018-07-26T18:59:32.574Z,91.00
2018-07-26T19:02:00.744Z,91.10
2018-07-26T19:04:28.968Z,91.30
2018-07-26T19:06:57.152Z,91.50
2018-07-26T19:09:25.324Z,91.80
2018-07-26T19:11:53.524Z,92.10
2018-07-26T19:14:21.712Z,92.30
2018-07-26T19:16:49.896Z,92.70
2018-07-26T19:19:18.102Z,92.90
2018-07-26T19:21:46.271Z,93.40
2018-07-26T19:24:14.467Z,93.20
2018-07-26T19:26:42.652Z,92.70
2018-07-26T19:31:38.916Z,92.90
2018-07-26T19:34:07.124Z,92.80
2018-07-26T19:36:35.307Z,93.10
2018-07-26T19:39:04.871Z,93.40
2018-07-26T19:41:33.036Z,93.90
2018-07-26T19:44:01.272Z,94.10
2018-07-26T19:46:29.399Z,94.30
2018-07-26T19:48:57.589Z,94.90
2018-07-26T19:51:25.779Z,95.40
2018-07-26T19:53:54.005Z,95.30
2018-07-26T19:56:22.173Z,95.50
2018-07-26T20:01:18.528Z,96.10
2018-07-26T20:03:46.961Z,96.10
2018-07-26T20:06:15.168Z,96.30
2018-07-26T20:11:11.365Z,96.60
2018-07-26T20:13:39.534Z,97.10
2018-07-26T20:16:07.732Z,97.00
2018-07-26T20:18:35.917Z,97.30
2018-07-26T20:21:04.172Z,97.70
2018-07-26T20:23:32.367Z,96.60
2018-07-26T20:26:00.558Z,97.30
2018-07-26T20:30:57.099Z,97.20
2018-07-26T20:33:25.293Z,97.10
2018-07-26T20:38:21.444Z,97.00
2018-07-26T20:40:49.648Z,97.10
2018-07-26T20:43:17.928Z,97.80
2018-07-26T20:45:46.111Z,97.50
2018-07-26T20:48:14.381Z,97.50
2018-07-26T20:50:42.595Z,97.60
2018-07-26T20:55:38.658Z,98.10
2018-07-26T20:58:06.858Z,98.40
2018-07-26T21:00:35.096Z,98.30
2018-07-26T21:05:31.365Z,98.40
2018-07-26T21:07:59.561Z,98.80
2018-07-26T21:10:27.745Z,98.80
2018-07-26T21:12:56.189Z,99.00
2018-07-26T21:15:24.422Z,98.90
2018-07-26T21:17:53.179Z,98.90
2018-07-26T21:20:21.384Z,99.00
2018-07-26T21:22:49.555Z,99.10
2018-07-26T21:25:17.755Z,99.20
2018-07-26T21:27:46.072Z,99.30
2018-07-26T21:30:14.266Z,98.90
2018-07-26T21:32:42.504Z,99.00
2018-07-26T21:35:10.700Z,99.10
2018-07-26T21:37:38.885Z,99.30
2018-07-26T21:40:07.608Z,98.80
2018-07-26T21:45:04.293Z,99.10
2018-07-26T21:47:32.456Z,99.30
2018-07-26T21:50:00.638Z,99.60
2018-07-26T21:52:28.810Z,99.50
2018-07-26T21:54:57.047Z,99.50
2018-07-26T21:59:53.166Z,99.90
2018-07-26T22:02:21.426Z,99.90
2018-07-26T22:07:17.858Z,99.90
2018-07-26T22:09:46.068Z,99.90
2018-07-26T22:12:14.248Z,99.90
2018-07-26T22:14:42.474Z,99.90
2018-07-26T22:17:10.815Z,99.90
2018-07-26T22:22:07.568Z,99.90
2018-07-26T22:24:35.708Z,99.90
2018-07-26T22:27:03.909Z,99.90
2018-07-26T22:29:32.080Z,99.90
2018-07-26T22:32:00.260Z,99.90
2018-07-26T22:36:56.725Z,99.90
2018-07-26T22:41:52.820Z,99.90
2018-07-26T22:44:21.512Z,99.90
2018-07-26T22:46:49.707Z,99.90
2018-07-26T22:51:45.848Z,99.90
2018-07-26T22:59:09.951Z,99.90
2018-07-26T23:01:38.124Z,99.90
2018-07-26T23:04:06.316Z,99.90
2018-07-26T23:09:02.548Z,99.90
2018-07-26T23:11:30.716Z,99.90
2018-07-26T23:13:58.912Z,99.90
2018-07-26T23:18:55.087Z,99.90
2018-07-26T23:21:23.266Z,99.90
2018-07-26T23:23:51.471Z,99.90
2018-07-26T23:26:19.750Z,99.90
2018-07-26T23:28:47.982Z,99.90
2018-07-26T23:31:16.167Z,99.90
2018-07-26T23:33:44.350Z,99.90
2018-07-26T23:36:12.526Z,99.90
2018-07-26T23:38:40.692Z,99.90
2018-07-26T23:41:08.887Z,99.90
2018-07-26T23:43:37.064Z,99.90
2018-07-26T23:46:05.523Z,99.90
2018-07-26T23:48:33.712Z,99.90
2018-07-26T23:51:01.900Z,99.90
2018-07-26T23:53:30.059Z,99.90
2018-07-26T23:55:58.244Z,99.90
2018-07-26T23:58:26.504Z,99.90
